sensor_id;sensor_type;location;lat;lon;timestamp;pressure;altitude;pressure_sealevel;temperature;humidity
36664;BME280;53333;51.976;20.144;2023-07-13T00:01:18;99745.19;;;20.99;67.12
36664;BME280;53333;51.976;20.144;2023-07-13T00:03:52;99747.06;;;20.99;66.93
36664;BME280;53333;51.976;20.144;2023-07-13T00:06:25;99733.50;;;20.99;67.28
36664;BME280;53333;51.976;20.144;2023-07-13T00:09:04;99731.94;;;20.96;67.25
36664;BME280;53333;51.976;20.144;2023-07-13T00:11:39;99731.22;;;20.94;67.02
36664;BME280;53333;51.976;20.144;2023-07-13T00:14:12;99720.38;;;20.94;67.48
36664;BME280;53333;51.976;20.144;2023-07-13T00:16:46;99720.38;;;20.94;67.08
36664;BME280;53333;51.976;20.144;2023-07-13T00:19:20;99721.06;;;20.96;67.28
36664;BME280;53333;51.976;20.144;2023-07-13T00:21:53;99710.94;;;20.98;67.35
36664;BME280;53333;51.976;20.144;2023-07-13T00:24:27;99730.63;;;21.00;66.95
36664;BME280;53333;51.976;20.144;2023-07-13T00:27:02;99722.50;;;21.00;67.16
36664;BME280;53333;51.976;20.144;2023-07-13T00:29:35;99726.03;;;21.01;66.96
36664;BME280;53333;51.976;20.144;2023-07-13T00:32:08;99711.09;;;21.15;66.29
36664;BME280;53333;51.976;20.144;2023-07-13T00:34:42;99717.75;;;21.02;66.97
36664;BME280;53333;51.976;20.144;2023-07-13T00:37:15;99717.75;;;21.02;67.14
36664;BME280;53333;51.976;20.144;2023-07-13T00:39:48;99716.22;;;21.00;67.04
36664;BME280;53333;51.976;20.144;2023-07-13T00:42:23;99716.38;;;20.98;67.13
36664;BME280;53333;51.976;20.144;2023-07-13T00:46:06;99720.75;;;20.99;66.97
36664;BME280;53333;51.976;20.144;2023-07-13T00:48:00;99724.34;;;21.00;67.27
36664;BME280;53333;51.976;20.144;2023-07-13T00:50:34;99728.91;;;20.99;66.93
36664;BME280;53333;51.976;20.144;2023-07-13T00:53:07;99731.63;;;20.99;67.21
36664;BME280;53333;51.976;20.144;2023-07-13T00:55:41;99729.94;;;20.98;67.38
36664;BME280;53333;51.976;20.144;2023-07-13T00:58:15;99731.09;;;20.96;67.67
36664;BME280;53333;51.976;20.144;2023-07-13T01:00:49;99735.81;;;20.94;67.63
36664;BME280;53333;51.976;20.144;2023-07-13T01:03:23;99733.09;;;20.94;67.93
36664;BME280;53333;51.976;20.144;2023-07-13T01:05:58;99732.22;;;20.93;67.86
36664;BME280;53333;51.976;20.144;2023-07-13T01:08:31;99734.94;;;20.93;67.80
36664;BME280;53333;51.976;20.144;2023-07-13T01:11:05;99732.38;;;20.92;67.87
36664;BME280;53333;51.976;20.144;2023-07-13T01:13:41;99738.00;;;20.90;68.23
36664;BME280;53333;51.976;20.144;2023-07-13T01:16:19;99740.84;;;20.89;68.25
36664;BME280;53333;51.976;20.144;2023-07-13T01:18:55;99743.88;;;20.85;68.10
36664;BME280;53333;51.976;20.144;2023-07-13T01:21:32;99743.16;;;20.83;68.43
36664;BME280;53333;51.976;20.144;2023-07-13T01:24:06;99741.47;;;20.82;68.28
36664;BME280;53333;51.976;20.144;2023-07-13T01:26:39;99750.44;;;20.83;68.38
36664;BME280;53333;51.976;20.144;2023-07-13T01:29:12;99736.19;;;20.81;68.28
36664;BME280;53333;51.976;20.144;2023-07-13T01:31:45;99737.03;;;20.81;68.17
36664;BME280;53333;51.976;20.144;2023-07-13T01:34:18;99731.75;;;20.80;68.46
36664;BME280;53333;51.976;20.144;2023-07-13T01:36:53;99724.91;;;20.76;68.84
36664;BME280;53333;51.976;20.144;2023-07-13T01:39:26;99733.03;;;20.76;68.68
36664;BME280;53333;51.976;20.144;2023-07-13T01:41:59;99731.34;;;20.75;68.59
36664;BME280;53333;51.976;20.144;2023-07-13T01:44:32;99735.22;;;20.72;69.00
36664;BME280;53333;51.976;20.144;2023-07-13T01:47:05;99730.81;;;20.71;68.96
36664;BME280;53333;51.976;20.144;2023-07-13T01:49:39;99731.94;;;20.68;68.79
36664;BME280;53333;51.976;20.144;2023-07-13T01:52:14;99725.09;;;20.64;69.51
36664;BME280;53333;51.976;20.144;2023-07-13T01:54:47;99733.97;;;20.66;68.92
36664;BME280;53333;51.976;20.144;2023-07-13T01:57:21;99737.53;;;20.67;69.40
36664;BME280;53333;51.976;20.144;2023-07-13T01:59:54;99736.81;;;20.65;69.43
36664;BME280;53333;51.976;20.144;2023-07-13T02:02:27;99745.81;;;20.65;69.50
36664;BME280;53333;51.976;20.144;2023-07-13T02:05:00;99733.34;;;20.63;69.01
36664;BME280;53333;51.976;20.144;2023-07-13T02:07:34;99731.50;;;20.73;68.67
36664;BME280;53333;51.976;20.144;2023-07-13T02:10:09;99741.66;;;20.61;69.00
36664;BME280;53333;51.976;20.144;2023-07-13T02:12:44;99731.97;;;20.59;69.40
36664;BME280;53333;51.976;20.144;2023-07-13T02:15:17;99726.84;;;20.56;69.84
36664;BME280;53333;51.976;20.144;2023-07-13T02:17:50;99733.25;;;20.55;69.73
36664;BME280;53333;51.976;20.144;2023-07-13T02:20:23;99730.53;;;20.55;69.73
36664;BME280;53333;51.976;20.144;2023-07-13T02:22:59;99726.16;;;20.54;70.09
36664;BME280;53333;51.976;20.144;2023-07-13T02:25:32;99730.69;;;20.53;69.93
36664;BME280;53333;51.976;20.144;2023-07-13T02:28:05;99737.13;;;20.52;69.95
36664;BME280;53333;51.976;20.144;2023-07-13T02:30:38;99741.53;;;20.53;69.97
36664;BME280;53333;51.976;20.144;2023-07-13T02:33:11;99731.72;;;20.52;69.93
36664;BME280;53333;51.976;20.144;2023-07-13T02:35:44;99731.72;;;20.52;69.83
36664;BME280;53333;51.976;20.144;2023-07-13T02:38:18;99732.72;;;20.51;69.95
36664;BME280;53333;51.976;20.144;2023-07-13T02:40:51;99729.44;;;20.47;69.97
36664;BME280;53333;51.976;20.144;2023-07-13T02:43:24;99738.56;;;20.46;70.15
36664;BME280;53333;51.976;20.144;2023-07-13T02:45:58;99736.00;;;20.45;70.39
36664;BME280;53333;51.976;20.144;2023-07-13T02:48:37;99733.44;;;20.43;70.32
36664;BME280;53333;51.976;20.144;2023-07-13T02:51:10;99725.75;;;20.39;70.04
36664;BME280;53333;51.976;20.144;2023-07-13T02:53:44;99727.22;;;20.33;70.46
36664;BME280;53333;51.976;20.144;2023-07-13T02:56:18;99732.94;;;20.30;70.53
36664;BME280;53333;51.976;20.144;2023-07-13T02:58:52;99735.25;;;20.25;70.62
36664;BME280;53333;51.976;20.144;2023-07-13T03:01:25;99733.66;;;20.22;70.65
36664;BME280;53333;51.976;20.144;2023-07-13T03:03:58;99740.22;;;20.20;70.33
36664;BME280;53333;51.976;20.144;2023-07-13T03:06:32;99734.09;;;20.18;70.69
36664;BME280;53333;51.976;20.144;2023-07-13T03:09:06;99739.66;;;20.16;70.47
36664;BME280;53333;51.976;20.144;2023-07-13T03:11:42;99733.41;;;20.16;70.72
36664;BME280;53333;51.976;20.144;2023-07-13T03:14:24;99735.25;;;20.15;70.62
36664;BME280;53333;51.976;20.144;2023-07-13T03:16:57;99733.56;;;20.14;70.39
36664;BME280;53333;51.976;20.144;2023-07-13T03:19:33;99733.69;;;20.12;70.44
36664;BME280;53333;51.976;20.144;2023-07-13T03:22:07;99721.00;;;20.13;70.58
36664;BME280;53333;51.976;20.144;2023-07-13T03:24:43;99716.25;;;20.15;70.39
36664;BME280;53333;51.976;20.144;2023-07-13T03:27:17;99719.84;;;20.16;70.49
36664;BME280;53333;51.976;20.144;2023-07-13T03:29:53;99721.69;;;20.15;70.49
36664;BME280;53333;51.976;20.144;2023-07-13T03:32:26;99726.97;;;20.17;70.30
36664;BME280;53333;51.976;20.144;2023-07-13T03:34:59;99715.13;;;20.18;69.95
36664;BME280;53333;51.976;20.144;2023-07-13T03:37:35;99723.13;;;20.19;70.32
36664;BME280;53333;51.976;20.144;2023-07-13T03:40:20;99714.84;;;20.21;70.30
36664;BME280;53333;51.976;20.144;2023-07-13T03:42:53;99720.38;;;20.29;70.22
36664;BME280;53333;51.976;20.144;2023-07-13T03:45:26;99733.69;;;20.50;69.43
36664;BME280;53333;51.976;20.144;2023-07-13T03:47:59;99739.28;;;20.48;69.42
36664;BME280;53333;51.976;20.144;2023-07-13T03:50:33;99743.25;;;20.54;69.44
36664;BME280;53333;51.976;20.144;2023-07-13T03:53:08;99743.50;;;20.61;69.57
36664;BME280;53333;51.976;20.144;2023-07-13T03:55:42;99742.81;;;20.68;69.57
36664;BME280;53333;51.976;20.144;2023-07-13T03:58:33;99744.03;;;20.84;69.43
36664;BME280;53333;51.976;20.144;2023-07-13T04:01:17;99742.53;;;20.90;69.07
36664;BME280;53333;51.976;20.144;2023-07-13T04:03:51;99746.38;;;20.97;69.42
36664;BME280;53333;51.976;20.144;2023-07-13T04:06:28;99754.75;;;21.03;69.01
36664;BME280;53333;51.976;20.144;2023-07-13T04:09:03;99753.28;;;21.09;69.16
36664;BME280;53333;51.976;20.144;2023-07-13T04:11:39;99752.81;;;21.14;68.54
36664;BME280;53333;51.976;20.144;2023-07-13T04:14:11;99759.81;;;21.16;68.65
36664;BME280;53333;51.976;20.144;2023-07-13T04:16:45;99753.09;;;21.20;67.95
36664;BME280;53333;51.976;20.144;2023-07-13T04:19:18;99755.31;;;21.25;67.80
36664;BME280;53333;51.976;20.144;2023-07-13T04:21:51;99760.44;;;21.28;68.02
36664;BME280;53333;51.976;20.144;2023-07-13T04:24:24;99757.56;;;21.30;68.14
36664;BME280;53333;51.976;20.144;2023-07-13T04:26:58;99767.06;;;21.44;67.32
36664;BME280;53333;51.976;20.144;2023-07-13T04:29:33;99772.56;;;21.34;67.64
36664;BME280;53333;51.976;20.144;2023-07-13T04:32:06;99774.44;;;21.33;67.63
36664;BME280;53333;51.976;20.144;2023-07-13T04:34:40;99790.00;;;21.31;67.84
36664;BME280;53333;51.976;20.144;2023-07-13T04:37:13;99790.00;;;21.31;67.92
36664;BME280;53333;51.976;20.144;2023-07-13T04:39:45;99792.41;;;21.34;67.81
36664;BME280;53333;51.976;20.144;2023-07-13T04:42:20;99794.00;;;21.37;68.23
36664;BME280;53333;51.976;20.144;2023-07-13T04:44:53;99801.84;;;21.40;67.99
36664;BME280;53333;51.976;20.144;2023-07-13T04:47:25;99805.25;;;21.42;67.89
36664;BME280;53333;51.976;20.144;2023-07-13T04:49:59;99804.09;;;21.45;67.96
36664;BME280;53333;51.976;20.144;2023-07-13T04:52:32;99802.06;;;21.47;67.95
36664;BME280;53333;51.976;20.144;2023-07-13T04:55:06;99802.63;;;21.50;68.03
36664;BME280;53333;51.976;20.144;2023-07-13T04:57:40;99797.94;;;21.52;68.17
36664;BME280;53333;51.976;20.144;2023-07-13T05:00:14;99787.59;;;21.56;67.93
36664;BME280;53333;51.976;20.144;2023-07-13T05:02:48;99790.00;;;21.59;67.95
36664;BME280;53333;51.976;20.144;2023-07-13T05:05:26;99783.09;;;21.65;67.76
36664;BME280;53333;51.976;20.144;2023-07-13T05:08:03;99787.91;;;21.71;67.56
36664;BME280;53333;51.976;20.144;2023-07-13T05:10:36;99794.59;;;21.76;67.42
36664;BME280;53333;51.976;20.144;2023-07-13T05:13:10;99788.53;;;21.83;67.16
36664;BME280;53333;51.976;20.144;2023-07-13T05:15:43;99803.19;;;21.90;67.05
36664;BME280;53333;51.976;20.144;2023-07-13T05:18:16;99810.72;;;21.96;66.90
36664;BME280;53333;51.976;20.144;2023-07-13T05:20:56;99803.09;;;22.00;66.93
36664;BME280;53333;51.976;20.144;2023-07-13T05:23:29;99804.66;;;22.02;66.37
36664;BME280;53333;51.976;20.144;2023-07-13T05:26:03;99814.75;;;22.10;66.54
36664;BME280;53333;51.976;20.144;2023-07-13T05:28:42;99814.66;;;22.20;66.02
36664;BME280;53333;51.976;20.144;2023-07-13T05:31:15;99814.44;;;22.31;65.84
36664;BME280;53333;51.976;20.144;2023-07-13T05:33:48;99817.88;;;22.41;65.58
36664;BME280;53333;51.976;20.144;2023-07-13T05:36:21;99814.03;;;22.52;65.72
36664;BME280;53333;51.976;20.144;2023-07-13T05:38:54;99805.78;;;22.62;65.60
36664;BME280;53333;51.976;20.144;2023-07-13T05:41:27;99803.25;;;22.68;65.08
36664;BME280;53333;51.976;20.144;2023-07-13T05:44:01;99797.00;;;22.76;65.41
36664;BME280;53333;51.976;20.144;2023-07-13T05:46:34;99807.41;;;22.81;65.02
36664;BME280;53333;51.976;20.144;2023-07-13T05:49:07;99806.06;;;22.85;65.22
36664;BME280;53333;51.976;20.144;2023-07-13T05:51:40;99806.59;;;22.89;65.19
36664;BME280;53333;51.976;20.144;2023-07-13T05:54:13;99807.63;;;22.96;65.25
36664;BME280;53333;51.976;20.144;2023-07-13T05:56:46;99813.88;;;23.14;64.82
36664;BME280;53333;51.976;20.144;2023-07-13T05:59:20;99818.03;;;23.35;65.23
36664;BME280;53333;51.976;20.144;2023-07-13T06:01:53;99823.19;;;23.63;64.65
36664;BME280;53333;51.976;20.144;2023-07-13T06:04:26;99820.38;;;23.89;63.59
36664;BME280;53333;51.976;20.144;2023-07-13T06:06:59;99817.13;;;24.18;63.19
36664;BME280;53333;51.976;20.144;2023-07-13T06:09:32;99815.56;;;24.48;63.15
36664;BME280;53333;51.976;20.144;2023-07-13T06:12:06;99810.75;;;24.75;62.32
36664;BME280;53333;51.976;20.144;2023-07-13T06:14:40;99811.75;;;24.91;60.44
36664;BME280;53333;51.976;20.144;2023-07-13T06:17:13;99815.41;;;25.06;60.29
36664;BME280;53333;51.976;20.144;2023-07-13T06:19:46;99813.47;;;25.31;60.20
36664;BME280;53333;51.976;20.144;2023-07-13T06:22:19;99810.19;;;25.36;59.81
36664;BME280;53333;51.976;20.144;2023-07-13T06:24:52;99816.72;;;25.58;58.81
36664;BME280;53333;51.976;20.144;2023-07-13T06:27:25;99812.13;;;25.82;58.35
36664;BME280;53333;51.976;20.144;2023-07-13T06:30:03;99804.91;;;26.12;57.32
36664;BME280;53333;51.976;20.144;2023-07-13T06:32:39;99801.75;;;26.38;56.82
36664;BME280;53333;51.976;20.144;2023-07-13T06:35:14;99810.47;;;26.57;55.32
36664;BME280;53333;51.976;20.144;2023-07-13T06:37:47;99815.78;;;26.73;54.95
36664;BME280;53333;51.976;20.144;2023-07-13T06:40:23;99815.59;;;26.90;54.05
36664;BME280;53333;51.976;20.144;2023-07-13T06:42:58;99819.19;;;27.05;53.60
36664;BME280;53333;51.976;20.144;2023-07-13T06:45:36;99814.91;;;27.17;52.20
36664;BME280;53333;51.976;20.144;2023-07-13T06:48:16;99810.63;;;27.30;51.34
36664;BME280;53333;51.976;20.144;2023-07-13T06:50:50;99808.94;;;27.44;51.53
36664;BME280;53333;51.976;20.144;2023-07-13T06:53:25;99808.59;;;27.53;51.72
36664;BME280;53333;51.976;20.144;2023-07-13T06:55:58;99804.91;;;27.61;51.30
36664;BME280;53333;51.976;20.144;2023-07-13T06:58:33;99803.34;;;27.73;50.90
36664;BME280;53333;51.976;20.144;2023-07-13T07:01:15;99792.88;;;27.84;49.96
36664;BME280;53333;51.976;20.144;2023-07-13T07:03:51;99795.13;;;27.95;49.52
36664;BME280;53333;51.976;20.144;2023-07-13T07:06:28;99800.75;;;28.08;48.50
36664;BME280;53333;51.976;20.144;2023-07-13T07:09:04;99801.91;;;28.21;48.68
36664;BME280;53333;51.976;20.144;2023-07-13T07:11:39;99798.84;;;28.31;48.78
36664;BME280;53333;51.976;20.144;2023-07-13T07:14:33;99798.47;;;28.40;48.32
36664;BME280;53333;51.976;20.144;2023-07-13T07:17:08;99792.63;;;28.50;48.30
36664;BME280;53333;51.976;20.144;2023-07-13T07:19:41;99795.69;;;28.62;47.99
36664;BME280;53333;51.976;20.144;2023-07-13T07:22:15;99805.91;;;28.75;48.48
36664;BME280;53333;51.976;20.144;2023-07-13T07:24:50;99797.50;;;28.83;47.85
36664;BME280;53333;51.976;20.144;2023-07-13T07:27:23;99794.19;;;28.94;47.44
36664;BME280;53333;51.976;20.144;2023-07-13T07:30:00;99800.19;;;29.11;46.29
36664;BME280;53333;51.976;20.144;2023-07-13T07:32:40;99793.91;;;29.24;46.55
36664;BME280;53333;51.976;20.144;2023-07-13T07:35:28;99797.78;;;29.37;46.25
36664;BME280;53333;51.976;20.144;2023-07-13T07:38:07;99793.19;;;29.50;45.81
36664;BME280;53333;51.976;20.144;2023-07-13T07:40:42;99799.31;;;29.66;45.45
36664;BME280;53333;51.976;20.144;2023-07-13T07:43:19;99802.34;;;29.78;44.85
36664;BME280;53333;51.976;20.144;2023-07-13T07:45:52;99801.75;;;29.89;44.37
36664;BME280;53333;51.976;20.144;2023-07-13T07:48:27;99797.94;;;30.03;43.94
36664;BME280;53333;51.976;20.144;2023-07-13T07:51:02;99797.94;;;30.17;43.31
36664;BME280;53333;51.976;20.144;2023-07-13T07:53:35;99794.75;;;30.27;42.83
36664;BME280;53333;51.976;20.144;2023-07-13T07:56:09;99807.03;;;30.37;42.77
36664;BME280;53333;51.976;20.144;2023-07-13T07:58:47;99807.06;;;30.51;43.06
36664;BME280;53333;51.976;20.144;2023-07-13T08:01:24;99806.00;;;30.65;42.59
36664;BME280;53333;51.976;20.144;2023-07-13T08:04:01;99805.53;;;30.75;41.82
36664;BME280;53333;51.976;20.144;2023-07-13T08:06:38;99809.34;;;30.74;41.89
36664;BME280;53333;51.976;20.144;2023-07-13T08:09:16;99812.09;;;30.81;41.93
36664;BME280;53333;51.976;20.144;2023-07-13T08:11:54;99813.13;;;30.93;41.96
36664;BME280;53333;51.976;20.144;2023-07-13T08:14:30;99813.31;;;31.11;41.76
36664;BME280;53333;51.976;20.144;2023-07-13T08:17:22;99816.66;;;31.20;41.45
36664;BME280;53333;51.976;20.144;2023-07-13T08:19:56;99812.84;;;31.21;41.06
36664;BME280;53333;51.976;20.144;2023-07-13T08:22:30;99816.25;;;31.17;41.18
36664;BME280;53333;51.976;20.144;2023-07-13T08:25:04;99826.06;;;31.06;41.64
36664;BME280;53333;51.976;20.144;2023-07-13T08:27:37;99829.44;;;31.01;41.55
36664;BME280;53333;51.976;20.144;2023-07-13T08:30:10;99837.31;;;30.98;42.19
36664;BME280;53333;51.976;20.144;2023-07-13T08:32:44;99833.50;;;30.85;42.80
36664;BME280;53333;51.976;20.144;2023-07-13T08:35:18;99840.31;;;30.69;42.99
36664;BME280;53333;51.976;20.144;2023-07-13T08:37:52;99843.31;;;30.54;42.83
36664;BME280;53333;51.976;20.144;2023-07-13T08:40:27;99843.50;;;30.39;43.31
36664;BME280;53333;51.976;20.144;2023-07-13T08:43:00;99849.00;;;30.26;43.89
36664;BME280;53333;51.976;20.144;2023-07-13T08:45:40;99841.16;;;30.10;44.08
36664;BME280;53333;51.976;20.144;2023-07-13T08:48:18;99835.84;;;30.01;44.29
36664;BME280;53333;51.976;20.144;2023-07-13T08:50:57;99841.06;;;29.76;44.71
36664;BME280;53333;51.976;20.144;2023-07-13T08:53:46;99842.31;;;29.74;44.86
36664;BME280;53333;51.976;20.144;2023-07-13T08:56:23;99843.09;;;29.47;45.64
36664;BME280;53333;51.976;20.144;2023-07-13T08:59:00;99841.09;;;29.28;45.68
36664;BME280;53333;51.976;20.144;2023-07-13T09:01:58;99841.66;;;29.16;46.14
36664;BME280;53333;51.976;20.144;2023-07-13T09:04:34;99847.97;;;29.10;45.97
36664;BME280;53333;51.976;20.144;2023-07-13T09:07:21;99846.31;;;28.81;47.32
36664;BME280;53333;51.976;20.144;2023-07-13T09:10:05;99846.75;;;28.56;48.00
36664;BME280;53333;51.976;20.144;2023-07-13T09:12:45;99859.38;;;28.51;47.66
36664;BME280;53333;51.976;20.144;2023-07-13T09:15:26;99852.03;;;28.30;49.39
36664;BME280;53333;51.976;20.144;2023-07-13T09:18:08;99858.50;;;28.22;49.61
36664;BME280;53333;51.976;20.144;2023-07-13T09:20:44;99859.28;;;28.16;49.86
36664;BME280;53333;51.976;20.144;2023-07-13T09:23:24;99851.00;;;28.09;50.29
36664;BME280;53333;51.976;20.144;2023-07-13T09:26:02;99848.44;;;28.07;50.28
36664;BME280;53333;51.976;20.144;2023-07-13T09:28:39;99843.34;;;28.04;49.89
36664;BME280;53333;51.976;20.144;2023-07-13T09:31:16;99844.81;;;28.00;49.76
36664;BME280;53333;51.976;20.144;2023-07-13T09:33:50;99851.13;;;28.01;49.52
36664;BME280;53333;51.976;20.144;2023-07-13T09:36:26;99851.25;;;27.93;49.65
36664;BME280;53333;51.976;20.144;2023-07-13T09:39:05;99850.31;;;27.85;50.04
36664;BME280;53333;51.976;20.144;2023-07-13T09:41:47;99848.06;;;27.74;49.51
36664;BME280;53333;51.976;20.144;2023-07-13T09:44:28;99848.41;;;27.64;49.65
36664;BME280;53333;51.976;20.144;2023-07-13T09:47:12;99848.91;;;27.53;49.93
36664;BME280;53333;51.976;20.144;2023-07-13T09:49:54;99846.84;;;27.40;50.10
36664;BME280;53333;51.976;20.144;2023-07-13T09:52:40;99852.63;;;27.30;50.49
36664;BME280;53333;51.976;20.144;2023-07-13T09:55:25;99843.81;;;27.20;50.92
36664;BME280;53333;51.976;20.144;2023-07-13T09:58:03;99841.75;;;27.07;51.45
36664;BME280;53333;51.976;20.144;2023-07-13T10:00:37;99841.84;;;26.99;51.56
36664;BME280;53333;51.976;20.144;2023-07-13T10:03:17;99836.09;;;26.94;51.92
36664;BME280;53333;51.976;20.144;2023-07-13T10:05:53;99849.69;;;26.87;52.54
36664;BME280;53333;51.976;20.144;2023-07-13T10:08:28;99852.59;;;26.71;53.38
36664;BME280;53333;51.976;20.144;2023-07-13T10:11:09;99842.16;;;26.51;53.61
36664;BME280;53333;51.976;20.144;2023-07-13T10:13:46;99836.84;;;26.35;52.66
36664;BME280;53333;51.976;20.144;2023-07-13T10:16:21;99839.16;;;26.23;50.76
36664;BME280;53333;51.976;20.144;2023-07-13T10:18:56;99830.66;;;26.18;50.21
36664;BME280;53333;51.976;20.144;2023-07-13T10:21:35;99838.22;;;26.16;49.45
36664;BME280;53333;51.976;20.144;2023-07-13T10:24:15;99832.44;;;26.10;48.77
36664;BME280;53333;51.976;20.144;2023-07-13T10:26:56;99830.44;;;26.04;47.00
36664;BME280;53333;51.976;20.144;2023-07-13T10:29:36;99815.09;;;25.95;46.44
36664;BME280;53333;51.976;20.144;2023-07-13T10:32:12;99826.41;;;25.92;47.06
36664;BME280;53333;51.976;20.144;2023-07-13T10:34:46;99821.28;;;25.89;48.88
36664;BME280;53333;51.976;20.144;2023-07-13T10:37:23;99823.38;;;25.87;51.30
36664;BME280;53333;51.976;20.144;2023-07-13T10:39:58;99814.09;;;25.88;52.28
36664;BME280;53333;51.976;20.144;2023-07-13T10:42:36;99822.81;;;25.91;53.71
36664;BME280;53333;51.976;20.144;2023-07-13T10:45:14;99822.81;;;25.91;54.08
36664;BME280;53333;51.976;20.144;2023-07-13T10:47:50;99818.84;;;25.94;54.85
36664;BME280;53333;51.976;20.144;2023-07-13T10:50:27;99827.59;;;25.98;55.30
36664;BME280;53333;51.976;20.144;2023-07-13T10:53:03;99832.88;;;25.99;55.43
36664;BME280;53333;51.976;20.144;2023-07-13T10:55:59;99831.47;;;26.03;55.20
36664;BME280;53333;51.976;20.144;2023-07-13T10:58:35;99834.38;;;26.02;55.00
36664;BME280;53333;51.976;20.144;2023-07-13T11:01:11;99838.53;;;25.98;55.56
36664;BME280;53333;51.976;20.144;2023-07-13T11:03:49;99841.09;;;25.99;55.46
36664;BME280;53333;51.976;20.144;2023-07-13T11:06:33;99848.53;;;26.05;55.33
36664;BME280;53333;51.976;20.144;2023-07-13T11:09:32;99845.06;;;26.12;54.67
36664;BME280;53333;51.976;20.144;2023-07-13T11:12:26;99854.53;;;26.09;54.60
36664;BME280;53333;51.976;20.144;2023-07-13T11:15:12;99855.91;;;26.05;54.53
36664;BME280;53333;51.976;20.144;2023-07-13T11:17:50;99864.47;;;26.02;54.41
36664;BME280;53333;51.976;20.144;2023-07-13T11:20:41;99868.94;;;26.03;54.58
36664;BME280;53333;51.976;20.144;2023-07-13T11:23:35;99864.97;;;26.05;54.66
36664;BME280;53333;51.976;20.144;2023-07-13T11:26:39;99867.31;;;26.08;54.74
36664;BME280;53333;51.976;20.144;2023-07-13T11:29:25;99869.22;;;26.08;54.81
36664;BME280;53333;51.976;20.144;2023-07-13T11:34:55;99882.34;;;26.13;54.86
36664;BME280;53333;51.976;20.144;2023-07-13T11:37:28;99874.50;;;26.09;54.85
36664;BME280;53333;51.976;20.144;2023-07-13T11:40:04;99884.06;;;26.14;55.04
36664;BME280;53333;51.976;20.144;2023-07-13T11:42:38;99882.09;;;26.22;54.74
36664;BME280;53333;51.976;20.144;2023-07-13T11:45:21;99892.50;;;26.27;54.43
36664;BME280;53333;51.976;20.144;2023-07-13T11:48:22;99892.44;;;26.35;54.22
36664;BME280;53333;51.976;20.144;2023-07-13T11:50:58;99893.97;;;26.38;53.58
36664;BME280;53333;51.976;20.144;2023-07-13T11:53:38;99887.06;;;26.42;53.22
36664;BME280;53333;51.976;20.144;2023-07-13T11:56:12;99892.53;;;26.42;52.72
36664;BME280;53333;51.976;20.144;2023-07-13T11:58:49;99899.25;;;26.39;51.81
36664;BME280;53333;51.976;20.144;2023-07-13T12:01:25;99900.09;;;26.40;52.22
36664;BME280;53333;51.976;20.144;2023-07-13T12:04:03;99896.53;;;26.39;51.72
36664;BME280;53333;51.976;20.144;2023-07-13T12:06:38;99906.03;;;26.43;51.97
36664;BME280;53333;51.976;20.144;2023-07-13T12:09:14;99902.47;;;26.43;51.58
36664;BME280;53333;51.976;20.144;2023-07-13T12:11:48;99905.22;;;26.43;51.50
36664;BME280;53333;51.976;20.144;2023-07-13T12:14:21;99910.50;;;26.44;51.38
36664;BME280;53333;51.976;20.144;2023-07-13T12:16:56;99911.53;;;26.43;51.33
36664;BME280;53333;51.976;20.144;2023-07-13T12:19:33;99911.69;;;26.42;51.96
36664;BME280;53333;51.976;20.144;2023-07-13T12:22:11;99904.84;;;26.46;52.11
36664;BME280;53333;51.976;20.144;2023-07-13T12:24:46;99919.19;;;26.48;52.37
36664;BME280;53333;51.976;20.144;2023-07-13T12:27:21;99917.97;;;26.51;52.66
36664;BME280;53333;51.976;20.144;2023-07-13T12:29:58;99917.97;;;26.51;52.96
36664;BME280;53333;51.976;20.144;2023-07-13T12:32:32;99918.16;;;26.49;53.25
36664;BME280;53333;51.976;20.144;2023-07-13T12:35:14;99921.75;;;26.50;53.71
36664;BME280;53333;51.976;20.144;2023-07-13T12:37:50;99915.78;;;26.46;53.59
36664;BME280;53333;51.976;20.144;2023-07-13T12:40:28;99906.75;;;26.45;53.95
36664;BME280;53333;51.976;20.144;2023-07-13T12:43:10;99906.47;;;26.55;53.07
36664;BME280;53333;51.976;20.144;2023-07-13T12:45:55;99915.13;;;26.44;52.27
36664;BME280;53333;51.976;20.144;2023-07-13T12:48:29;99917.72;;;26.37;51.39
36664;BME280;53333;51.976;20.144;2023-07-13T12:51:21;99923.19;;;26.37;51.14
36664;BME280;53333;51.976;20.144;2023-07-13T12:53:58;99918.59;;;26.38;51.06
36664;BME280;53333;51.976;20.144;2023-07-13T12:56:37;99924.91;;;26.38;50.61
36664;BME280;53333;51.976;20.144;2023-07-13T12:59:15;99918.16;;;26.49;51.01
36664;BME280;53333;51.976;20.144;2023-07-13T13:01:50;99914.63;;;26.40;50.81
36664;BME280;53333;51.976;20.144;2023-07-13T13:04:23;99921.34;;;26.38;50.80
36664;BME280;53333;51.976;20.144;2023-07-13T13:07:08;99924.06;;;26.38;50.91
36664;BME280;53333;51.976;20.144;2023-07-13T13:09:42;99923.78;;;26.33;50.26
36664;BME280;53333;51.976;20.144;2023-07-13T13:12:15;99922.25;;;26.30;49.73
36664;BME280;53333;51.976;20.144;2023-07-13T13:14:48;99928.75;;;26.29;49.76
36664;BME280;53333;51.976;20.144;2023-07-13T13:17:24;99925.16;;;26.28;49.43
36664;BME280;53333;51.976;20.144;2023-07-13T13:20:00;99928.09;;;26.27;49.86
36664;BME280;53333;51.976;20.144;2023-07-13T13:22:34;99921.88;;;26.33;50.03
36664;BME280;53333;51.976;20.144;2023-07-13T13:25:09;99915.66;;;26.16;49.52
36664;BME280;53333;51.976;20.144;2023-07-13T13:27:43;99905.28;;;26.12;49.46
36664;BME280;53333;51.976;20.144;2023-07-13T13:30:17;99904.97;;;26.06;49.07
36664;BME280;53333;51.976;20.144;2023-07-13T13:32:50;99914.19;;;26.05;49.33
36664;BME280;53333;51.976;20.144;2023-07-13T13:35:23;99916.34;;;26.18;49.37
36664;BME280;53333;51.976;20.144;2023-07-13T13:37:59;99912.53;;;26.04;49.39
36664;BME280;53333;51.976;20.144;2023-07-13T13:40:32;99920.44;;;25.99;49.06